sensor_id;sensor_type;location;lat;lon;timestamp;temperature;humidity
32366;DHT22;18837;46.832;16.838;2023-09-07T00:00:14;20.70;86.40
32366;DHT22;18837;46.832;16.838;2023-09-07T00:02:40;20.70;86.10
32366;DHT22;18837;46.832;16.838;2023-09-07T00:05:07;20.70;86.40
32366;DHT22;18837;46.832;16.838;2023-09-07T00:07:34;20.70;86.40
32366;DHT22;18837;46.832;16.838;2023-09-07T00:10:00;20.60;86.30
32366;DHT22;18837;46.832;16.838;2023-09-07T00:12:26;20.70;86.50
32366;DHT22;18837;46.832;16.838;2023-09-07T00:14:53;20.60;86.40
32366;DHT22;18837;46.832;16.838;2023-09-07T00:17:20;20.60;86.20
32366;DHT22;18837;46.832;16.838;2023-09-07T00:19:46;20.60;86.50
32366;DHT22;18837;46.832;16.838;2023-09-07T00:22:15;20.60;86.40
32366;DHT22;18837;46.832;16.838;2023-09-07T00:24:41;20.60;86.40
32366;DHT22;18837;46.832;16.838;2023-09-07T00:27:07;20.60;86.60
32366;DHT22;18837;46.832;16.838;2023-09-07T00:29:34;20.60;86.70
32366;DHT22;18837;46.832;16.838;2023-09-07T00:32:00;20.60;86.80
32366;DHT22;18837;46.832;16.838;2023-09-07T00:34:26;20.60;86.40
32366;DHT22;18837;46.832;16.838;2023-09-07T00:36:52;20.60;86.70
32366;DHT22;18837;46.832;16.838;2023-09-07T00:39:17;20.50;86.70
32366;DHT22;18837;46.832;16.838;2023-09-07T00:41:43;20.50;86.60
32366;DHT22;18837;46.832;16.838;2023-09-07T00:44:09;20.50;86.70
32366;DHT22;18837;46.832;16.838;2023-09-07T00:46:35;20.50;86.60
32366;DHT22;18837;46.832;16.838;2023-09-07T00:49:02;20.50;86.70
32366;DHT22;18837;46.832;16.838;2023-09-07T00:51:30;20.50;86.60
32366;DHT22;18837;46.832;16.838;2023-09-07T00:53:56;20.50;86.90
32366;DHT22;18837;46.832;16.838;2023-09-07T00:56:22;20.40;86.60
32366;DHT22;18837;46.832;16.838;2023-09-07T00:58:52;20.40;86.80
32366;DHT22;18837;46.832;16.838;2023-09-07T01:01:18;20.40;86.60
32366;DHT22;18837;46.832;16.838;2023-09-07T01:03:44;20.40;86.90
32366;DHT22;18837;46.832;16.838;2023-09-07T01:06:35;20.40;86.90
32366;DHT22;18837;46.832;16.838;2023-09-07T01:09:09;20.40;86.90
32366;DHT22;18837;46.832;16.838;2023-09-07T01:11:37;20.40;86.80
32366;DHT22;18837;46.832;16.838;2023-09-07T01:14:03;20.40;86.90
32366;DHT22;18837;46.832;16.838;2023-09-07T01:16:30;20.40;86.70
32366;DHT22;18837;46.832;16.838;2023-09-07T01:18:56;20.30;87.00
32366;DHT22;18837;46.832;16.838;2023-09-07T01:21:22;20.30;86.40
32366;DHT22;18837;46.832;16.838;2023-09-07T01:23:49;20.30;86.80
32366;DHT22;18837;46.832;16.838;2023-09-07T01:26:15;20.30;86.80
32366;DHT22;18837;46.832;16.838;2023-09-07T01:28:41;20.30;86.80
32366;DHT22;18837;46.832;16.838;2023-09-07T01:31:07;20.30;86.80
32366;DHT22;18837;46.832;16.838;2023-09-07T01:33:33;20.30;86.70
32366;DHT22;18837;46.832;16.838;2023-09-07T01:35:59;20.30;86.70
32366;DHT22;18837;46.832;16.838;2023-09-07T01:38:24;20.30;86.90
32366;DHT22;18837;46.832;16.838;2023-09-07T01:40:50;20.30;86.60
32366;DHT22;18837;46.832;16.838;2023-09-07T01:43:16;20.20;86.90
32366;DHT22;18837;46.832;16.838;2023-09-07T01:45:41;20.20;86.60
32366;DHT22;18837;46.832;16.838;2023-09-07T01:48:13;20.20;87.00
32366;DHT22;18837;46.832;16.838;2023-09-07T01:50:39;20.20;86.90
32366;DHT22;18837;46.832;16.838;2023-09-07T01:53:05;20.20;86.90
32366;DHT22;18837;46.832;16.838;2023-09-07T01:55:31;20.20;86.90
32366;DHT22;18837;46.832;16.838;2023-09-07T01:57:57;20.20;86.90
32366;DHT22;18837;46.832;16.838;2023-09-07T02:00:23;20.10;86.70
32366;DHT22;18837;46.832;16.838;2023-09-07T02:02:49;20.10;86.80
32366;DHT22;18837;46.832;16.838;2023-09-07T02:05:15;20.10;86.70
32366;DHT22;18837;46.832;16.838;2023-09-07T02:07:42;20.10;87.30
32366;DHT22;18837;46.832;16.838;2023-09-07T02:10:08;20.10;86.90
32366;DHT22;18837;46.832;16.838;2023-09-07T02:12:34;20.10;87.00
32366;DHT22;18837;46.832;16.838;2023-09-07T02:15:02;20.10;86.70
32366;DHT22;18837;46.832;16.838;2023-09-07T02:17:29;20.10;87.00
32366;DHT22;18837;46.832;16.838;2023-09-07T02:19:55;20.00;86.90
32366;DHT22;18837;46.832;16.838;2023-09-07T02:22:21;20.00;87.00
32366;DHT22;18837;46.832;16.838;2023-09-07T02:24:47;20.00;86.90
32366;DHT22;18837;46.832;16.838;2023-09-07T02:27:13;20.00;86.70
32366;DHT22;18837;46.832;16.838;2023-09-07T02:29:39;20.00;86.90
32366;DHT22;18837;46.832;16.838;2023-09-07T02:32:05;20.00;86.90
32366;DHT22;18837;46.832;16.838;2023-09-07T02:34:30;20.00;86.90
32366;DHT22;18837;46.832;16.838;2023-09-07T02:36:57;20.00;87.20
32366;DHT22;18837;46.832;16.838;2023-09-07T02:39:23;20.00;87.00
32366;DHT22;18837;46.832;16.838;2023-09-07T02:41:52;20.00;87.20
32366;DHT22;18837;46.832;16.838;2023-09-07T02:44:18;20.00;86.80
32366;DHT22;18837;46.832;16.838;2023-09-07T02:46:44;19.90;86.80
32366;DHT22;18837;46.832;16.838;2023-09-07T02:49:10;19.90;87.20
32366;DHT22;18837;46.832;16.838;2023-09-07T02:51:35;19.90;86.90
32366;DHT22;18837;46.832;16.838;2023-09-07T02:54:02;19.90;87.00
32366;DHT22;18837;46.832;16.838;2023-09-07T02:56:29;19.90;86.80
32366;DHT22;18837;46.832;16.838;2023-09-07T02:58:54;19.90;87.00
32366;DHT22;18837;46.832;16.838;2023-09-07T03:01:20;19.80;86.90
32366;DHT22;18837;46.832;16.838;2023-09-07T03:03:47;19.80;87.00
32366;DHT22;18837;46.832;16.838;2023-09-07T03:06:15;19.90;87.20
32366;DHT22;18837;46.832;16.838;2023-09-07T03:08:45;19.80;87.00
32366;DHT22;18837;46.832;16.838;2023-09-07T03:11:11;19.80;86.80
32366;DHT22;18837;46.832;16.838;2023-09-07T03:13:37;19.80;86.80
32366;DHT22;18837;46.832;16.838;2023-09-07T03:16:04;19.80;86.80
32366;DHT22;18837;46.832;16.838;2023-09-07T03:18:30;19.80;87.00
32366;DHT22;18837;46.832;16.838;2023-09-07T03:20:59;19.80;86.90
32366;DHT22;18837;46.832;16.838;2023-09-07T03:23:25;19.70;87.00
32366;DHT22;18837;46.832;16.838;2023-09-07T03:25:51;19.70;86.60
32366;DHT22;18837;46.832;16.838;2023-09-07T03:28:16;19.70;86.60
32366;DHT22;18837;46.832;16.838;2023-09-07T03:30:42;19.70;87.00
32366;DHT22;18837;46.832;16.838;2023-09-07T03:33:08;19.70;87.00
32366;DHT22;18837;46.832;16.838;2023-09-07T03:35:34;19.70;86.70
32366;DHT22;18837;46.832;16.838;2023-09-07T03:38:00;19.70;87.00
32366;DHT22;18837;46.832;16.838;2023-09-07T03:40:26;19.70;86.60
32366;DHT22;18837;46.832;16.838;2023-09-07T03:42:52;19.60;87.00
32366;DHT22;18837;46.832;16.838;2023-09-07T03:45:18;19.60;87.00
32366;DHT22;18837;46.832;16.838;2023-09-07T03:47:44;19.60;86.90
32366;DHT22;18837;46.832;16.838;2023-09-07T03:50:10;19.60;86.80
32366;DHT22;18837;46.832;16.838;2023-09-07T03:52:36;19.60;87.90
32366;DHT22;18837;46.832;16.838;2023-09-07T03:55:02;19.60;86.90
32366;DHT22;18837;46.832;16.838;2023-09-07T03:57:28;19.60;87.00
32366;DHT22;18837;46.832;16.838;2023-09-07T03:59:54;19.60;86.90
32366;DHT22;18837;46.832;16.838;2023-09-07T04:02:21;19.50;86.70
32366;DHT22;18837;46.832;16.838;2023-09-07T04:04:54;19.50;86.80
32366;DHT22;18837;46.832;16.838;2023-09-07T04:07:23;19.50;86.80
32366;DHT22;18837;46.832;16.838;2023-09-07T04:09:50;19.50;86.90
32366;DHT22;18837;46.832;16.838;2023-09-07T04:12:16;19.50;86.90
32366;DHT22;18837;46.832;16.838;2023-09-07T04:14:41;19.50;86.80
32366;DHT22;18837;46.832;16.838;2023-09-07T04:17:08;19.50;86.60
32366;DHT22;18837;46.832;16.838;2023-09-07T04:19:33;19.50;86.90
32366;DHT22;18837;46.832;16.838;2023-09-07T04:22:00;19.40;86.70
32366;DHT22;18837;46.832;16.838;2023-09-07T04:24:26;19.50;86.90
32366;DHT22;18837;46.832;16.838;2023-09-07T04:27:01;19.40;86.90
32366;DHT22;18837;46.832;16.838;2023-09-07T04:29:27;19.40;86.80
32366;DHT22;18837;46.832;16.838;2023-09-07T04:31:53;19.40;86.80
32366;DHT22;18837;46.832;16.838;2023-09-07T04:34:21;19.40;87.00
32366;DHT22;18837;46.832;16.838;2023-09-07T04:36:47;19.40;86.90
32366;DHT22;18837;46.832;16.838;2023-09-07T04:39:13;19.40;87.10
32366;DHT22;18837;46.832;16.838;2023-09-07T04:41:40;19.40;86.60
32366;DHT22;18837;46.832;16.838;2023-09-07T04:44:06;19.40;86.70
32366;DHT22;18837;46.832;16.838;2023-09-07T04:46:32;19.30;87.10
32366;DHT22;18837;46.832;16.838;2023-09-07T04:48:57;19.30;87.00
32366;DHT22;18837;46.832;16.838;2023-09-07T04:51:23;19.30;87.10
32366;DHT22;18837;46.832;16.838;2023-09-07T04:53:51;19.30;87.00
32366;DHT22;18837;46.832;16.838;2023-09-07T04:56:17;19.30;87.00
32366;DHT22;18837;46.832;16.838;2023-09-07T04:58:43;19.30;87.10
32366;DHT22;18837;46.832;16.838;2023-09-07T05:01:10;19.30;87.00
32366;DHT22;18837;46.832;16.838;2023-09-07T05:03:37;19.30;87.20
32366;DHT22;18837;46.832;16.838;2023-09-07T05:06:05;19.30;87.10
32366;DHT22;18837;46.832;16.838;2023-09-07T05:08:31;19.30;87.10
32366;DHT22;18837;46.832;16.838;2023-09-07T05:11:02;19.30;87.20
32366;DHT22;18837;46.832;16.838;2023-09-07T05:13:28;19.30;87.20
32366;DHT22;18837;46.832;16.838;2023-09-07T05:15:55;19.20;87.10
32366;DHT22;18837;46.832;16.838;2023-09-07T05:18:22;19.20;87.40
32366;DHT22;18837;46.832;16.838;2023-09-07T05:20:48;19.20;87.40
32366;DHT22;18837;46.832;16.838;2023-09-07T05:23:15;19.20;87.20
32366;DHT22;18837;46.832;16.838;2023-09-07T05:25:48;19.20;87.10
32366;DHT22;18837;46.832;16.838;2023-09-07T05:28:16;19.20;87.20
32366;DHT22;18837;46.832;16.838;2023-09-07T05:30:43;19.20;87.50
32366;DHT22;18837;46.832;16.838;2023-09-07T05:33:13;19.20;87.30
32366;DHT22;18837;46.832;16.838;2023-09-07T05:35:39;19.20;87.40
32366;DHT22;18837;46.832;16.838;2023-09-07T05:38:05;19.20;87.50
32366;DHT22;18837;46.832;16.838;2023-09-07T05:40:35;19.20;87.30
32366;DHT22;18837;46.832;16.838;2023-09-07T05:43:01;19.20;87.40
32366;DHT22;18837;46.832;16.838;2023-09-07T05:45:30;19.20;87.40
32366;DHT22;18837;46.832;16.838;2023-09-07T05:47:56;19.20;87.20
32366;DHT22;18837;46.832;16.838;2023-09-07T05:50:22;19.20;87.50
32366;DHT22;18837;46.832;16.838;2023-09-07T05:52:47;19.20;87.40
32366;DHT22;18837;46.832;16.838;2023-09-07T05:55:13;19.20;87.50
32366;DHT22;18837;46.832;16.838;2023-09-07T05:57:39;19.10;87.60
32366;DHT22;18837;46.832;16.838;2023-09-07T06:00:05;19.10;87.40
32366;DHT22;18837;46.832;16.838;2023-09-07T06:02:31;19.10;87.60
32366;DHT22;18837;46.832;16.838;2023-09-07T06:04:57;19.10;87.60
32366;DHT22;18837;46.832;16.838;2023-09-07T06:07:23;19.10;87.60
32366;DHT22;18837;46.832;16.838;2023-09-07T06:09:49;19.10;87.60
32366;DHT22;18837;46.832;16.838;2023-09-07T06:12:15;19.10;87.60
32366;DHT22;18837;46.832;16.838;2023-09-07T06:14:41;19.10;87.70
32366;DHT22;18837;46.832;16.838;2023-09-07T06:17:07;19.10;87.70
32366;DHT22;18837;46.832;16.838;2023-09-07T06:19:33;19.10;87.70
32366;DHT22;18837;46.832;16.838;2023-09-07T06:21:59;19.10;87.70
32366;DHT22;18837;46.832;16.838;2023-09-07T06:24:25;19.10;87.80
32366;DHT22;18837;46.832;16.838;2023-09-07T06:26:50;19.10;87.80
32366;DHT22;18837;46.832;16.838;2023-09-07T06:29:17;19.10;87.90
32366;DHT22;18837;46.832;16.838;2023-09-07T06:31:42;19.10;87.90
32366;DHT22;18837;46.832;16.838;2023-09-07T06:34:08;19.10;87.80
32366;DHT22;18837;46.832;16.838;2023-09-07T06:36:35;19.10;87.80
32366;DHT22;18837;46.832;16.838;2023-09-07T06:39:01;19.10;87.60
32366;DHT22;18837;46.832;16.838;2023-09-07T06:41:28;19.10;87.70
32366;DHT22;18837;46.832;16.838;2023-09-07T06:43:53;19.10;87.80
32366;DHT22;18837;46.832;16.838;2023-09-07T06:46:19;19.10;88.00
32366;DHT22;18837;46.832;16.838;2023-09-07T06:48:45;19.10;87.70
32366;DHT22;18837;46.832;16.838;2023-09-07T06:51:11;19.10;87.80
32366;DHT22;18837;46.832;16.838;2023-09-07T06:53:36;19.20;87.80
32366;DHT22;18837;46.832;16.838;2023-09-07T06:56:03;19.20;87.70
32366;DHT22;18837;46.832;16.838;2023-09-07T06:58:29;19.20;88.00
32366;DHT22;18837;46.832;16.838;2023-09-07T07:01:01;19.20;87.80
32366;DHT22;18837;46.832;16.838;2023-09-07T07:03:28;19.20;87.90
32366;DHT22;18837;46.832;16.838;2023-09-07T07:05:55;19.20;87.80
32366;DHT22;18837;46.832;16.838;2023-09-07T07:08:21;19.20;87.90
32366;DHT22;18837;46.832;16.838;2023-09-07T07:10:47;19.20;87.80
32366;DHT22;18837;46.832;16.838;2023-09-07T07:13:13;19.20;87.80
32366;DHT22;18837;46.832;16.838;2023-09-07T07:15:39;19.20;87.70
32366;DHT22;18837;46.832;16.838;2023-09-07T07:18:04;19.20;87.70
32366;DHT22;18837;46.832;16.838;2023-09-07T07:20:39;19.30;87.90
32366;DHT22;18837;46.832;16.838;2023-09-07T07:23:07;19.30;87.50
32366;DHT22;18837;46.832;16.838;2023-09-07T07:25:33;19.30;88.10
32366;DHT22;18837;46.832;16.838;2023-09-07T07:28:03;19.30;87.70
32366;DHT22;18837;46.832;16.838;2023-09-07T07:30:35;19.30;88.10
32366;DHT22;18837;46.832;16.838;2023-09-07T07:33:02;19.30;87.90
32366;DHT22;18837;46.832;16.838;2023-09-07T07:35:35;19.40;87.90
32366;DHT22;18837;46.832;16.838;2023-09-07T07:38:02;19.40;87.70
32366;DHT22;18837;46.832;16.838;2023-09-07T07:40:29;19.40;87.80
32366;DHT22;18837;46.832;16.838;2023-09-07T07:42:55;19.40;87.60
32366;DHT22;18837;46.832;16.838;2023-09-07T07:45:21;19.50;87.60
32366;DHT22;18837;46.832;16.838;2023-09-07T07:47:49;19.50;87.80
32366;DHT22;18837;46.832;16.838;2023-09-07T07:50:15;19.50;87.50
32366;DHT22;18837;46.832;16.838;2023-09-07T07:52:42;19.50;87.60
32366;DHT22;18837;46.832;16.838;2023-09-07T07:55:11;19.60;87.70
32366;DHT22;18837;46.832;16.838;2023-09-07T07:57:37;19.60;87.40
32366;DHT22;18837;46.832;16.838;2023-09-07T08:00:04;19.60;87.20
32366;DHT22;18837;46.832;16.838;2023-09-07T08:02:30;19.70;87.30
32366;DHT22;18837;46.832;16.838;2023-09-07T08:04:57;19.70;87.30
32366;DHT22;18837;46.832;16.838;2023-09-07T08:07:25;19.80;87.10
32366;DHT22;18837;46.832;16.838;2023-09-07T08:09:56;19.80;87.20
32366;DHT22;18837;46.832;16.838;2023-09-07T08:12:21;19.80;87.10
32366;DHT22;18837;46.832;16.838;2023-09-07T08:14:47;19.90;86.90
32366;DHT22;18837;46.832;16.838;2023-09-07T08:17:13;19.90;87.10
32366;DHT22;18837;46.832;16.838;2023-09-07T08:19:39;20.00;86.90
32366;DHT22;18837;46.832;16.838;2023-09-07T08:22:05;20.00;86.50
32366;DHT22;18837;46.832;16.838;2023-09-07T08:24:31;20.00;86.50
32366;DHT22;18837;46.832;16.838;2023-09-07T08:27:00;20.10;86.40
32366;DHT22;18837;46.832;16.838;2023-09-07T08:29:32;20.10;86.20
32366;DHT22;18837;46.832;16.838;2023-09-07T08:31:58;20.20;86.20
32366;DHT22;18837;46.832;16.838;2023-09-07T08:34:25;20.20;86.00
32366;DHT22;18837;46.832;16.838;2023-09-07T08:36:51;20.30;86.00
32366;DHT22;18837;46.832;16.838;2023-09-07T08:39:20;20.30;86.10
32366;DHT22;18837;46.832;16.838;2023-09-07T08:41:46;20.40;86.20
32366;DHT22;18837;46.832;16.838;2023-09-07T08:44:16;20.40;86.00
32366;DHT22;18837;46.832;16.838;2023-09-07T08:46:43;20.40;86.00
32366;DHT22;18837;46.832;16.838;2023-09-07T08:49:10;20.50;86.00
32366;DHT22;18837;46.832;16.838;2023-09-07T08:51:37;20.60;86.40
32366;DHT22;18837;46.832;16.838;2023-09-07T08:54:07;20.60;86.80
32366;DHT22;18837;46.832;16.838;2023-09-07T08:56:33;20.60;86.60
32366;DHT22;18837;46.832;16.838;2023-09-07T08:58:59;20.70;86.90
32366;DHT22;18837;46.832;16.838;2023-09-07T09:01:49;20.70;87.20
32366;DHT22;18837;46.832;16.838;2023-09-07T09:04:16;20.80;87.50
32366;DHT22;18837;46.832;16.838;2023-09-07T09:06:42;20.90;87.50
32366;DHT22;18837;46.832;16.838;2023-09-07T09:09:08;20.90;87.60
32366;DHT22;18837;46.832;16.838;2023-09-07T09:11:34;20.90;88.10
32366;DHT22;18837;46.832;16.838;2023-09-07T09:13:59;21.00;88.20
32366;DHT22;18837;46.832;16.838;2023-09-07T09:16:25;21.10;89.00
32366;DHT22;18837;46.832;16.838;2023-09-07T09:18:58;21.20;90.20
32366;DHT22;18837;46.832;16.838;2023-09-07T09:21:26;21.20;90.70
32366;DHT22;18837;46.832;16.838;2023-09-07T09:23:54;21.20;90.20
32366;DHT22;18837;46.832;16.838;2023-09-07T09:26:22;21.30;90.40
32366;DHT22;18837;46.832;16.838;2023-09-07T09:28:49;21.30;89.50
32366;DHT22;18837;46.832;16.838;2023-09-07T09:31:18;21.40;88.30
32366;DHT22;18837;46.832;16.838;2023-09-07T09:33:48;21.40;87.90
32366;DHT22;18837;46.832;16.838;2023-09-07T09:36:15;21.40;88.00
32366;DHT22;18837;46.832;16.838;2023-09-07T09:38:48;21.50;86.90
32366;DHT22;18837;46.832;16.838;2023-09-07T09:41:16;21.50;86.40
32366;DHT22;18837;46.832;16.838;2023-09-07T09:43:43;21.50;86.40
32366;DHT22;18837;46.832;16.838;2023-09-07T09:46:12;21.60;85.10
32366;DHT22;18837;46.832;16.838;2023-09-07T09:48:40;21.60;85.90
32366;DHT22;18837;46.832;16.838;2023-09-07T09:51:07;21.60;88.00
32366;DHT22;18837;46.832;16.838;2023-09-07T09:53:33;21.70;88.60
32366;DHT22;18837;46.832;16.838;2023-09-07T09:56:00;21.70;89.30
32366;DHT22;18837;46.832;16.838;2023-09-07T09:58:26;21.70;87.60
32366;DHT22;18837;46.832;16.838;2023-09-07T10:00:55;21.80;86.50
32366;DHT22;18837;46.832;16.838;2023-09-07T10:03:31;21.80;87.10
32366;DHT22;18837;46.832;16.838;2023-09-07T10:06:10;21.90;88.40
32366;DHT22;18837;46.832;16.838;2023-09-07T10:08:37;21.90;88.50
32366;DHT22;18837;46.832;16.838;2023-09-07T10:11:26;21.90;87.80
32366;DHT22;18837;46.832;16.838;2023-09-07T10:14:06;22.00;88.60
32366;DHT22;18837;46.832;16.838;2023-09-07T10:17:00;22.00;89.10
32366;DHT22;18837;46.832;16.838;2023-09-07T10:19:29;22.10;87.20
32366;DHT22;18837;46.832;16.838;2023-09-07T10:21:56;22.10;86.90
32366;DHT22;18837;46.832;16.838;2023-09-07T10:24:34;22.10;88.40
32366;DHT22;18837;46.832;16.838;2023-09-07T10:27:06;22.20;89.50
32366;DHT22;18837;46.832;16.838;2023-09-07T10:29:51;22.20;88.60
32366;DHT22;18837;46.832;16.838;2023-09-07T10:32:20;22.30;88.30
32366;DHT22;18837;46.832;16.838;2023-09-07T10:34:46;22.30;87.20
32366;DHT22;18837;46.832;16.838;2023-09-07T10:37:14;22.40;90.20
32366;DHT22;18837;46.832;16.838;2023-09-07T10:39:44;22.40;90.10
32366;DHT22;18837;46.832;16.838;2023-09-07T10:42:23;22.50;88.30
32366;DHT22;18837;46.832;16.838;2023-09-07T10:44:54;22.50;90.60
32366;DHT22;18837;46.832;16.838;2023-09-07T10:47:25;22.60;89.30
32366;DHT22;18837;46.832;16.838;2023-09-07T10:49:51;22.60;87.40
32366;DHT22;18837;46.832;16.838;2023-09-07T10:52:17;22.60;87.60
32366;DHT22;18837;46.832;16.838;2023-09-07T10:54:42;22.70;88.10
32366;DHT22;18837;46.832;16.838;2023-09-07T10:57:11;22.70;87.50
32366;DHT22;18837;46.832;16.838;2023-09-07T10:59:43;22.70;87.70
32366;DHT22;18837;46.832;16.838;2023-09-07T11:02:09;22.70;88.10
32366;DHT22;18837;46.832;16.838;2023-09-07T11:04:35;22.70;85.70
32366;DHT22;18837;46.832;16.838;2023-09-07T11:07:01;22.80;84.90
32366;DHT22;18837;46.832;16.838;2023-09-07T11:09:30;22.80;86.50
32366;DHT22;18837;46.832;16.838;2023-09-07T11:11:56;22.80;86.30
32366;DHT22;18837;46.832;16.838;2023-09-07T11:14:22;22.80;85.00
32366;DHT22;18837;46.832;16.838;2023-09-07T11:16:48;22.90;85.80
32366;DHT22;18837;46.832;16.838;2023-09-07T11:19:15;22.90;90.00
32366;DHT22;18837;46.832;16.838;2023-09-07T11:21:56;23.00;90.60
32366;DHT22;18837;46.832;16.838;2023-09-07T11:24:25;23.00;91.10
32366;DHT22;18837;46.832;16.838;2023-09-07T11:26:51;23.00;90.40
32366;DHT22;18837;46.832;16.838;2023-09-07T11:29:18;23.10;88.50
32366;DHT22;18837;46.832;16.838;2023-09-07T11:31:47;23.10;85.10
32366;DHT22;18837;46.832;16.838;2023-09-07T11:34:14;23.10;83.40
32366;DHT22;18837;46.832;16.838;2023-09-07T11:36:40;23.10;85.00
32366;DHT22;18837;46.832;16.838;2023-09-07T11:39:07;23.10;84.00
32366;DHT22;18837;46.832;16.838;2023-09-07T11:41:41;23.10;85.30
32366;DHT22;18837;46.832;16.838;2023-09-07T11:44:08;23.10;86.20
32366;DHT22;18837;46.832;16.838;2023-09-07T11:46:34;23.20;87.70
32366;DHT22;18837;46.832;16.838;2023-09-07T11:49:00;23.20;88.20
32366;DHT22;18837;46.832;16.838;2023-09-07T11:51:26;23.20;86.80
32366;DHT22;18837;46.832;16.838;2023-09-07T11:53:53;23.30;85.30
32366;DHT22;18837;46.832;16.838;2023-09-07T11:56:20;23.30;85.20
32366;DHT22;18837;46.832;16.838;2023-09-07T11:58:48;23.30;85.40
32366;DHT22;18837;46.832;16.838;2023-09-07T12:01:14;23.30;86.20
32366;DHT22;18837;46.832;16.838;2023-09-07T12:03:42;23.30;83.40
32366;DHT22;18837;46.832;16.838;2023-09-07T12:06:08;23.30;83.80
32366;DHT22;18837;46.832;16.838;2023-09-07T12:08:35;23.40;85.60
32366;DHT22;18837;46.832;16.838;2023-09-07T12:11:01;23.40;86.40
32366;DHT22;18837;46.832;16.838;2023-09-07T12:13:28;23.40;84.50
32366;DHT22;18837;46.832;16.838;2023-09-07T12:15:54;23.40;86.60
32366;DHT22;18837;46.832;16.838;2023-09-07T12:18:21;23.50;86.70
32366;DHT22;18837;46.832;16.838;2023-09-07T12:20:47;23.50;85.60
32366;DHT22;18837;46.832;16.838;2023-09-07T12:23:13;23.50;86.20
32366;DHT22;18837;46.832;16.838;2023-09-07T12:25:39;23.50;87.20
32366;DHT22;18837;46.832;16.838;2023-09-07T12:28:04;23.60;87.60
32366;DHT22;18837;46.832;16.838;2023-09-07T12:30:43;23.60;84.50
32366;DHT22;18837;46.832;16.838;2023-09-07T12:33:13;23.60;85.40
32366;DHT22;18837;46.832;16.838;2023-09-07T12:35:39;23.60;84.90
32366;DHT22;18837;46.832;16.838;2023-09-07T12:38:05;23.60;85.70
32366;DHT22;18837;46.832;16.838;2023-09-07T12:40:30;23.60;83.40
32366;DHT22;18837;46.832;16.838;2023-09-07T12:42:56;23.60;85.40
32366;DHT22;18837;46.832;16.838;2023-09-07T12:45:22;23.60;83.50
32366;DHT22;18837;46.832;16.838;2023-09-07T12:47:48;23.60;84.60
32366;DHT22;18837;46.832;16.838;2023-09-07T12:50:14;23.70;83.70
32366;DHT22;18837;46.832;16.838;2023-09-07T12:52:41;23.70;84.10
32366;DHT22;18837;46.832;16.838;2023-09-07T12:55:07;23.70;83.90
32366;DHT22;18837;46.832;16.838;2023-09-07T12:57:33;23.70;84.20
32366;DHT22;18837;46.832;16.838;2023-09-07T13:00:00;23.70;83.40
32366;DHT22;18837;46.832;16.838;2023-09-07T13:02:26;23.70;82.80
32366;DHT22;18837;46.832;16.838;2023-09-07T13:05:30;23.70;84.70
32366;DHT22;18837;46.832;16.838;2023-09-07T13:08:08;23.80;82.50
32366;DHT22;18837;46.832;16.838;2023-09-07T13:10:34;23.70;81.70
32366;DHT22;18837;46.832;16.838;2023-09-07T13:12:59;23.80;83.30
32366;DHT22;18837;46.832;16.838;2023-09-07T13:15:25;23.80;81.30
32366;DHT22;18837;46.832;16.838;2023-09-07T13:17:52;23.80;83.50
32366;DHT22;18837;46.832;16.838;2023-09-07T13:20:17;23.80;85.30
32366;DHT22;18837;46.832;16.838;2023-09-07T13:22:46;23.80;84.00
32366;DHT22;18837;46.832;16.838;2023-09-07T13:25:12;23.80;83.50
32366;DHT22;18837;46.832;16.838;2023-09-07T13:27:38;23.90;82.70
32366;DHT22;18837;46.832;16.838;2023-09-07T13:30:05;23.90;81.20
32366;DHT22;18837;46.832;16.838;2023-09-07T13:32:33;23.90;83.20
32366;DHT22;18837;46.832;16.838;2023-09-07T13:34:59;23.90;83.60
32366;DHT22;18837;46.832;16.838;2023-09-07T13:37:25;23.90;83.10
32366;DHT22;18837;46.832;16.838;2023-09-07T13:39:51;24.00;83.90
32366;DHT22;18837;46.832;16.838;2023-09-07T13:42:22;24.00;80.10
32366;DHT22;18837;46.832;16.838;2023-09-07T13:44:48;24.00;81.80
32366;DHT22;18837;46.832;16.838;2023-09-07T13:47:15;24.00;81.30
32366;DHT22;18837;46.832;16.838;2023-09-07T13:49:41;24.00;80.70
32366;DHT22;18837;46.832;16.838;2023-09-07T13:52:07;24.00;79.10
32366;DHT22;18837;46.832;16.838;2023-09-07T13:54:32;24.00;78.00
32366;DHT22;18837;46.832;16.838;2023-09-07T13:56:58;24.10;78.40
32366;DHT22;18837;46.832;16.838;2023-09-07T13:59:24;24.10;78.30
32366;DHT22;18837;46.832;16.838;2023-09-07T14:01:54;24.10;83.00
32366;DHT22;18837;46.832;16.838;2023-09-07T14:04:19;24.10;80.30
32366;DHT22;18837;46.832;16.838;2023-09-07T14:06:45;24.10;79.30
32366;DHT22;18837;46.832;16.838;2023-09-07T14:09:12;24.10;80.00
32366;DHT22;18837;46.832;16.838;2023-09-07T14:11:38;24.20;83.60
32366;DHT22;18837;46.832;16.838;2023-09-07T14:14:12;24.20;83.80
32366;DHT22;18837;46.832;16.838;2023-09-07T14:16:51;24.20;84.50
32366;DHT22;18837;46.832;16.838;2023-09-07T14:19:20;24.20;83.90
32366;DHT22;18837;46.832;16.838;2023-09-07T14:21:46;24.30;84.10
32366;DHT22;18837;46.832;16.838;2023-09-07T14:24:12;24.30;84.30
32366;DHT22;18837;46.832;16.838;2023-09-07T14:26:37;24.40;83.80
32366;DHT22;18837;46.832;16.838;2023-09-07T14:29:03;24.40;82.50
32366;DHT22;18837;46.832;16.838;2023-09-07T14:31:36;24.40;81.10
32366;DHT22;18837;46.832;16.838;2023-09-07T14:34:02;24.40;81.50
32366;DHT22;18837;46.832;16.838;2023-09-07T14:36:28;24.40;81.60
32366;DHT22;18837;46.832;16.838;2023-09-07T14:38:53;24.40;81.30
32366;DHT22;18837;46.832;16.838;2023-09-07T14:41:19;24.40;81.80
32366;DHT22;18837;46.832;16.838;2023-09-07T14:43:46;24.50;82.40
32366;DHT22;18837;46.832;16.838;2023-09-07T14:46:12;24.40;82.30
32366;DHT22;18837;46.832;16.838;2023-09-07T14:48:50;24.40;81.20
32366;DHT22;18837;46.832;16.838;2023-09-07T14:51:29;24.40;80.10
32366;DHT22;18837;46.832;16.838;2023-09-07T14:53:55;24.40;80.30
32366;DHT22;18837;46.832;16.838;2023-09-07T14:56:21;24.40;80.10
32366;DHT22;18837;46.832;16.838;2023-09-07T14:58:46;24.50;81.10
32366;DHT22;18837;46.832;16.838;2023-09-07T15:01:12;24.50;80.50
32366;DHT22;18837;46.832;16.838;2023-09-07T15:03:38;24.40;79.80
32366;DHT22;18837;46.832;16.838;2023-09-07T15:06:21;24.40;79.80
32366;DHT22;18837;46.832;16.838;2023-09-07T15:08:46;24.50;79.80
32366;DHT22;18837;46.832;16.838;2023-09-07T15:11:13;24.40;80.10
32366;DHT22;18837;46.832;16.838;2023-09-07T15:13:39;24.50;80.50
32366;DHT22;18837;46.832;16.838;2023-09-07T15:16:05;24.40;80.20